createdAt,value
2017-10-05T00:00:19.078Z,0
2017-10-05T00:00:59.649Z,0
2017-10-05T00:01:40.231Z,0
2017-10-05T00:02:20.751Z,0
2017-10-05T00:03:01.364Z,0
2017-10-05T00:03:41.879Z,0
2017-10-05T00:04:22.427Z,0
2017-10-05T00:05:03.017Z,0
2017-10-05T00:05:43.456Z,0
2017-10-05T00:06:24.024Z,0
2017-10-05T00:07:04.613Z,0
2017-10-05T00:07:45.127Z,0
2017-10-05T00:08:25.653Z,0
2017-10-05T00:09:06.199Z,0
2017-10-05T00:09:46.797Z,0
2017-10-05T00:10:27.334Z,0
2017-10-05T00:11:07.879Z,0
2017-10-05T00:11:48.385Z,0
2017-10-05T00:12:28.934Z,0
2017-10-05T00:13:09.486Z,0
2017-10-05T00:13:50.018Z,0
2017-10-05T00:14:30.540Z,0
2017-10-05T00:16:43.826Z,0
2017-10-05T00:17:24.332Z,0
2017-10-05T00:18:04.921Z,0
2017-10-05T00:18:45.474Z,0
2017-10-05T00:19:26.022Z,0
2017-10-05T00:20:06.550Z,0
2017-10-05T00:20:47.087Z,0
2017-10-05T00:21:27.585Z,0
2017-10-05T00:22:08.152Z,0
2017-10-05T00:22:48.670Z,0
2017-10-05T00:23:29.234Z,0
2017-10-05T00:24:09.708Z,0
2017-10-05T00:24:50.266Z,0
2017-10-05T00:25:30.801Z,0
2017-10-05T00:26:11.358Z,0
2017-10-05T00:26:51.930Z,0
2017-10-05T00:27:32.441Z,0
2017-10-05T00:29:50.826Z,0
2017-10-05T00:30:31.343Z,0
2017-10-05T00:31:11.891Z,0
2017-10-05T00:31:52.447Z,0
2017-10-05T00:32:32.940Z,0
2017-10-05T00:33:13.441Z,0
2017-10-05T00:33:54.016Z,0
2017-10-05T00:34:34.554Z,0
2017-10-05T00:35:15.089Z,0
2017-10-05T00:35:55.677Z,0
2017-10-05T00:36:36.189Z,0
2017-10-05T00:37:16.736Z,0
2017-10-05T00:37:57.283Z,0
2017-10-05T00:38:37.819Z,0
2017-10-05T00:39:18.345Z,0
2017-10-05T00:39:58.851Z,0
2017-10-05T00:40:39.421Z,0
2017-10-05T00:41:19.918Z,0
2017-10-05T00:42:00.451Z,0
2017-10-05T00:42:40.950Z,0
2017-10-05T00:43:21.529Z,0
2017-10-05T00:44:02.066Z,0
2017-10-05T00:44:42.581Z,0
2017-10-05T00:45:23.107Z,0
2017-10-05T00:46:03.619Z,0
2017-10-05T00:46:44.183Z,0
2017-10-05T00:47:24.718Z,0
2017-10-05T00:48:05.300Z,0
2017-10-05T00:48:45.820Z,0
2017-10-05T00:49:26.382Z,0
2017-10-05T00:50:06.937Z,0
2017-10-05T00:50:47.505Z,0
2017-10-05T00:51:28.033Z,0
2017-10-05T00:52:08.561Z,0
2017-10-05T00:52:49.111Z,0
2017-10-05T00:53:29.620Z,0
2017-10-05T00:54:10.205Z,0
2017-10-05T00:54:50.652Z,0
2017-10-05T00:55:31.234Z,0
2017-10-05T00:56:11.752Z,0
2017-10-05T00:56:52.325Z,0
2017-10-05T00:57:32.951Z,0
2017-10-05T00:58:13.427Z,0
2017-10-05T00:58:53.921Z,0
2017-10-05T00:59:34.562Z,0
2017-10-05T01:00:15.093Z,0
2017-10-05T01:00:55.635Z,0
2017-10-05T01:01:36.156Z,0
2017-10-05T01:02:16.636Z,0
2017-10-05T01:02:57.198Z,0
2017-10-05T01:03:37.691Z,0
2017-10-05T01:04:18.294Z,0
2017-10-05T01:04:58.804Z,0
2017-10-05T01:05:39.313Z,0
2017-10-05T01:06:19.802Z,0
2017-10-05T01:07:00.432Z,0
2017-10-05T01:07:40.902Z,0
2017-10-05T01:10:09.425Z,0
2017-10-05T01:10:50.182Z,0
2017-10-05T01:11:30.719Z,0
2017-10-05T01:12:11.272Z,0
2017-10-05T01:12:51.813Z,0
2017-10-05T01:13:32.392Z,0
2017-10-05T01:14:12.938Z,0
2017-10-05T01:14:53.482Z,0
2017-10-05T01:15:33.951Z,0
2017-10-05T01:16:14.496Z,0
2017-10-05T01:16:55.002Z,0
2017-10-05T01:17:35.550Z,0
2017-10-05T01:18:16.142Z,0
2017-10-05T01:18:56.727Z,0
2017-10-05T01:19:37.271Z,0
2017-10-05T01:20:17.824Z,0
2017-10-05T01:20:58.350Z,0
2017-10-05T01:21:38.926Z,0
2017-10-05T01:22:19.480Z,0
2017-10-05T01:22:59.981Z,0
2017-10-05T01:23:40.554Z,0
2017-10-05T01:24:21.065Z,0
2017-10-05T01:25:01.625Z,0
2017-10-05T01:25:42.162Z,0
2017-10-05T01:26:22.706Z,0
2017-10-05T01:27:03.215Z,0
2017-10-05T01:27:43.770Z,0
2017-10-05T01:28:24.341Z,0
2017-10-05T01:29:04.835Z,0
2017-10-05T01:29:45.385Z,0
2017-10-05T01:30:25.884Z,0
2017-10-05T01:31:06.461Z,0
2017-10-05T01:31:46.961Z,0
2017-10-05T01:32:27.470Z,0
2017-10-05T01:33:08.007Z,0
2017-10-05T01:33:48.571Z,0
2017-10-05T01:34:29.108Z,0
2017-10-05T01:35:09.637Z,0
2017-10-05T01:35:50.143Z,0
2017-10-05T01:36:30.723Z,0
2017-10-05T01:37:11.230Z,0
2017-10-05T01:37:51.742Z,0
2017-10-05T01:38:32.285Z,0
2017-10-05T01:39:12.776Z,0
2017-10-05T01:39:53.349Z,0
2017-10-05T01:40:33.870Z,0
2017-10-05T01:41:14.441Z,0
2017-10-05T01:41:54.994Z,0
2017-10-05T01:42:35.567Z,0
2017-10-05T01:43:16.114Z,0
2017-10-05T01:43:56.708Z,0
2017-10-05T01:44:37.257Z,0
2017-10-05T01:45:17.801Z,0
2017-10-05T01:45:58.291Z,0
2017-10-05T01:46:38.875Z,0
2017-10-05T01:47:19.422Z,0
2017-10-05T01:47:59.917Z,0
2017-10-05T01:48:40.409Z,0
2017-10-05T01:49:20.997Z,0
2017-10-05T01:50:01.494Z,0
2017-10-05T01:50:42.051Z,0
2017-10-05T01:51:22.656Z,0
2017-10-05T01:52:03.159Z,0
2017-10-05T01:52:43.755Z,0
2017-10-05T01:53:24.227Z,0
2017-10-05T01:54:04.773Z,0
2017-10-05T01:54:45.283Z,0
2017-10-05T01:55:25.771Z,0
2017-10-05T01:56:06.342Z,0
2017-10-05T01:56:46.851Z,0
2017-10-05T01:57:27.373Z,0
2017-10-05T01:58:07.953Z,0
2017-10-05T01:58:48.454Z,0
2017-10-05T01:59:28.966Z,0
2017-10-05T02:00:09.529Z,0
2017-10-05T02:00:50.067Z,0
2017-10-05T02:01:30.616Z,0
2017-10-05T02:02:11.114Z,0
2017-10-05T02:02:51.611Z,0
2017-10-05T02:03:32.131Z,0
2017-10-05T02:04:12.664Z,0
2017-10-05T02:04:53.200Z,0
2017-10-05T02:05:33.802Z,0
2017-10-05T02:06:14.331Z,0
2017-10-05T02:06:54.860Z,0
2017-10-05T02:07:35.372Z,0
2017-10-05T02:08:15.955Z,0
2017-10-05T02:08:56.508Z,0
2017-10-05T02:09:37.080Z,0
2017-10-05T02:10:17.581Z,0
2017-10-05T02:10:58.139Z,0
2017-10-05T02:11:38.708Z,0
2017-10-05T02:12:19.192Z,0
2017-10-05T02:12:59.733Z,0
2017-10-05T02:13:40.284Z,0
2017-10-05T02:14:20.794Z,0
2017-10-05T02:15:01.365Z,0
2017-10-05T02:15:41.884Z,0
2017-10-05T02:16:22.417Z,0
2017-10-05T02:17:02.930Z,0
2017-10-05T02:17:43.497Z,0
2017-10-05T02:18:24.012Z,0
2017-10-05T02:19:04.614Z,0
2017-10-05T02:19:45.109Z,0
2017-10-05T02:20:25.655Z,0
2017-10-05T02:21:06.193Z,0
2017-10-05T02:21:46.721Z,0
2017-10-05T02:22:27.240Z,0
2017-10-05T02:23:07.804Z,0
2017-10-05T02:23:48.275Z,0
2017-10-05T02:24:28.857Z,0
2017-10-05T02:25:09.410Z,0
2017-10-05T02:25:49.909Z,0
2017-10-05T02:26:30.440Z,0
2017-10-05T02:27:10.992Z,0
2017-10-05T02:27:51.476Z,0
2017-10-05T02:28:32.037Z,0
2017-10-05T02:29:12.586Z,0
2017-10-05T02:29:53.148Z,0
2017-10-05T02:30:33.719Z,0
2017-10-05T02:31:14.294Z,0
2017-10-05T02:31:54.841Z,0
2017-10-05T02:32:35.332Z,0
2017-10-05T02:33:15.915Z,0
2017-10-05T02:33:56.442Z,0
2017-10-05T02:34:36.999Z,0
2017-10-05T02:35:17.555Z,0
2017-10-05T02:35:58.078Z,0
2017-10-05T02:36:38.666Z,0
2017-10-05T02:37:19.200Z,0
2017-10-05T02:37:59.698Z,0
2017-10-05T02:38:40.278Z,0
2017-10-05T02:39:20.770Z,0
2017-10-05T02:40:01.317Z,0
2017-10-05T02:40:41.846Z,0
2017-10-05T02:41:22.382Z,0
2017-10-05T02:42:02.893Z,0
2017-10-05T02:42:43.490Z,0
2017-10-05T02:43:24.016Z,0
2017-10-05T02:44:04.563Z,0
2017-10-05T02:44:45.111Z,0
2017-10-05T02:45:25.647Z,0
2017-10-05T02:46:06.208Z,0
2017-10-05T02:46:46.705Z,0
2017-10-05T02:47:27.254Z,0
2017-10-05T02:48:07.780Z,0
2017-10-05T02:48:48.353Z,0
2017-10-05T02:49:28.945Z,0
2017-10-05T02:50:09.422Z,0
2017-10-05T02:50:49.950Z,0
2017-10-05T02:51:30.455Z,0
2017-10-05T02:52:11.004Z,0
2017-10-05T02:52:51.523Z,0
2017-10-05T02:53:32.078Z,0
2017-10-05T02:54:12.569Z,0
2017-10-05T02:54:53.092Z,0
2017-10-05T02:55:33.644Z,0
2017-10-05T02:57:46.970Z,0
2017-10-05T02:58:27.468Z,0
2017-10-05T02:59:08.010Z,0
2017-10-05T02:59:48.554Z,0
2017-10-05T03:00:29.070Z,0
2017-10-05T03:01:09.659Z,0
2017-10-05T03:01:50.143Z,0
2017-10-05T03:02:30.746Z,0
2017-10-05T03:03:11.242Z,0
2017-10-05T03:03:51.778Z,0
2017-10-05T03:04:32.267Z,0
2017-10-05T03:05:12.825Z,0
2017-10-05T03:05:53.371Z,0
2017-10-05T03:06:33.900Z,0
2017-10-05T03:07:14.376Z,0
2017-10-05T03:07:54.924Z,0
2017-10-05T03:08:35.497Z,0
2017-10-05T03:09:16.024Z,0
2017-10-05T03:09:56.556Z,0
2017-10-05T03:10:37.111Z,0
2017-10-05T03:11:17.617Z,0
2017-10-05T03:11:58.201Z,0
2017-10-05T03:12:38.817Z,0
2017-10-05T03:13:19.373Z,0
2017-10-05T03:13:59.934Z,0
2017-10-05T03:14:40.466Z,0
2017-10-05T03:15:20.981Z,0
2017-10-05T03:16:01.514Z,0
2017-10-05T03:16:42.024Z,0
2017-10-05T03:17:22.561Z,0
2017-10-05T03:18:03.129Z,0
2017-10-05T03:18:43.668Z,0
2017-10-05T03:19:24.207Z,0
2017-10-05T03:20:04.774Z,0
2017-10-05T03:20:45.280Z,0
2017-10-05T03:21:25.833Z,0
2017-10-05T03:22:06.408Z,0
2017-10-05T03:22:46.977Z,0
2017-10-05T03:23:27.508Z,0
2017-10-05T03:24:08.000Z,0
2017-10-05T03:24:48.539Z,0
2017-10-05T03:25:29.056Z,0
2017-10-05T03:26:09.674Z,0
2017-10-05T03:26:50.131Z,0
2017-10-05T03:27:30.680Z,0
2017-10-05T03:28:11.204Z,0
2017-10-05T03:28:51.783Z,0
2017-10-05T03:29:32.252Z,0
2017-10-05T03:30:12.890Z,0
2017-10-05T03:30:53.410Z,0
2017-10-05T03:31:33.910Z,0
2017-10-05T03:32:14.463Z,0
2017-10-05T03:32:54.995Z,0
2017-10-05T03:33:35.525Z,0
2017-10-05T03:34:16.073Z,0
2017-10-05T03:34:56.631Z,0
2017-10-05T03:35:37.118Z,0
2017-10-05T03:36:17.656Z,0
2017-10-05T03:36:58.219Z,0
2017-10-05T03:37:38.746Z,0
2017-10-05T03:38:19.352Z,0
2017-10-05T03:38:59.852Z,0
2017-10-05T03:39:40.439Z,0
2017-10-05T03:40:20.999Z,0
2017-10-05T03:41:01.534Z,0
2017-10-05T03:41:42.098Z,0
2017-10-05T03:42:22.649Z,0
2017-10-05T03:43:03.166Z,0
2017-10-05T03:43:43.717Z,0
2017-10-05T03:44:24.281Z,0
2017-10-05T03:45:04.758Z,0
2017-10-05T03:45:45.345Z,0
2017-10-05T03:46:25.878Z,0
2017-10-05T03:47:06.371Z,0
2017-10-05T03:47:46.931Z,0
2017-10-05T03:48:27.509Z,0
2017-10-05T03:49:08.032Z,0
2017-10-05T03:49:48.553Z,0
2017-10-05T03:50:29.125Z,0
2017-10-05T03:51:09.594Z,0
2017-10-05T03:51:50.147Z,0
2017-10-05T03:52:30.714Z,0
2017-10-05T03:53:11.244Z,0
2017-10-05T03:53:51.788Z,0
2017-10-05T03:54:32.342Z,0
2017-10-05T03:55:12.909Z,0
2017-10-05T03:55:53.449Z,0
2017-10-05T03:56:34.005Z,0
2017-10-05T03:57:14.488Z,0
2017-10-05T03:57:55.072Z,0
2017-10-05T03:58:35.587Z,0
2017-10-05T03:59:16.120Z,0
2017-10-05T03:59:56.701Z,0
2017-10-05T04:00:37.219Z,0
2017-10-05T04:01:17.740Z,0
2017-10-05T04:01:58.241Z,0
2017-10-05T04:02:38.809Z,0
2017-10-05T04:03:19.304Z,0
2017-10-05T04:03:59.831Z,0
2017-10-05T04:04:40.409Z,0
2017-10-05T04:05:20.941Z,0
2017-10-05T04:06:01.471Z,0
2017-10-05T04:06:42.063Z,0
2017-10-05T04:07:22.604Z,0
2017-10-05T04:08:03.168Z,0
2017-10-05T04:08:43.709Z,0
2017-10-05T04:09:24.247Z,0
2017-10-05T04:10:04.787Z,0
2017-10-05T04:10:45.302Z,0
2017-10-05T04:11:25.835Z,0
2017-10-05T04:12:06.386Z,0
2017-10-05T04:12:46.897Z,0
2017-10-05T04:13:27.473Z,0
2017-10-05T04:14:07.994Z,0
2017-10-05T04:14:48.572Z,0
2017-10-05T04:15:29.104Z,0
2017-10-05T04:16:09.577Z,0
2017-10-05T04:16:50.346Z,0
2017-10-05T04:17:30.865Z,0
2017-10-05T04:18:11.709Z,0
2017-10-05T04:18:52.233Z,0
2017-10-05T04:19:32.785Z,0
2017-10-05T04:20:13.311Z,0
2017-10-05T04:20:53.899Z,0
2017-10-05T04:21:34.412Z,0
2017-10-05T04:22:14.966Z,0
2017-10-05T04:22:55.472Z,0
2017-10-05T04:23:36.062Z,0
2017-10-05T04:24:16.584Z,0
2017-10-05T04:24:57.101Z,0
2017-10-05T04:25:37.667Z,0
2017-10-05T04:26:18.239Z,0
2017-10-05T04:26:58.789Z,0
2017-10-05T04:27:39.324Z,0
2017-10-05T04:28:19.941Z,0
2017-10-05T04:29:00.441Z,0
2017-10-05T04:29:40.998Z,0
2017-10-05T04:30:21.545Z,0
2017-10-05T04:31:02.065Z,0
2017-10-05T04:31:42.691Z,0
2017-10-05T04:32:23.167Z,0
2017-10-05T04:33:03.733Z,0
2017-10-05T04:33:44.271Z,0
2017-10-05T04:34:24.757Z,0
2017-10-05T04:35:05.342Z,0
2017-10-05T04:35:45.838Z,0
2017-10-05T04:36:26.365Z,0
2017-10-05T04:37:06.944Z,0
2017-10-05T04:37:47.475Z,0
2017-10-05T04:38:27.948Z,0
2017-10-05T04:39:08.479Z,0
2017-10-05T04:39:49.059Z,0
2017-10-05T04:40:29.626Z,0
2017-10-05T04:41:10.141Z,0
2017-10-05T04:41:50.731Z,0
2017-10-05T04:42:31.351Z,0
2017-10-05T04:43:11.800Z,0
2017-10-05T04:43:52.336Z,0
2017-10-05T04:44:32.893Z,0
2017-10-05T04:45:13.463Z,0
2017-10-05T04:45:54.073Z,0
2017-10-05T04:46:34.578Z,0
2017-10-05T04:47:15.161Z,0
2017-10-05T04:47:55.701Z,0
2017-10-05T04:48:36.178Z,0
2017-10-05T04:49:16.749Z,0
2017-10-05T04:49:57.286Z,0
2017-10-05T04:50:37.933Z,0
2017-10-05T04:51:18.429Z,0
2017-10-05T04:51:58.965Z,0
2017-10-05T04:52:39.566Z,0
2017-10-05T04:53:20.070Z,0
2017-10-05T04:54:00.666Z,0
2017-10-05T04:54:41.307Z,0
2017-10-05T04:55:21.906Z,0
2017-10-05T04:56:02.424Z,0
2017-10-05T04:56:43.003Z,0
2017-10-05T04:57:23.552Z,0
2017-10-05T04:58:04.369Z,0
2017-10-05T04:58:44.888Z,0
2017-10-05T04:59:25.500Z,0
2017-10-05T05:00:05.984Z,0
2017-10-05T05:00:46.515Z,0
2017-10-05T05:01:27.066Z,0
2017-10-05T05:02:07.666Z,0
2017-10-05T05:02:48.376Z,0
2017-10-05T05:03:28.902Z,0
2017-10-05T05:04:09.419Z,0
2017-10-05T05:04:50.002Z,0
2017-10-05T05:05:30.556Z,0
2017-10-05T05:06:11.128Z,0
2017-10-05T05:06:51.650Z,0
2017-10-05T05:07:32.194Z,0
2017-10-05T05:08:12.732Z,0
2017-10-05T05:08:53.272Z,0
2017-10-05T05:09:33.823Z,0
2017-10-05T05:10:14.452Z,0
2017-10-05T05:10:54.925Z,0
2017-10-05T05:11:35.454Z,0
2017-10-05T05:12:16.024Z,0
2017-10-05T05:12:56.567Z,0
2017-10-05T05:13:37.069Z,0
2017-10-05T05:14:17.716Z,0
2017-10-05T05:14:58.271Z,0
2017-10-05T05:15:38.794Z,0
2017-10-05T05:16:19.310Z,0
2017-10-05T05:16:59.883Z,0
2017-10-05T05:17:40.425Z,0
2017-10-05T05:18:21.009Z,0
2017-10-05T05:19:01.457Z,0
2017-10-05T05:19:41.968Z,0
2017-10-05T05:20:22.569Z,0
2017-10-05T05:21:03.392Z,0
2017-10-05T05:21:43.926Z,0
2017-10-05T05:22:24.485Z,0
2017-10-05T05:23:05.155Z,0
2017-10-05T05:23:45.696Z,0
2017-10-05T05:24:26.231Z,0
2017-10-05T05:25:06.820Z,0
2017-10-05T05:25:47.293Z,0
2017-10-05T05:26:27.867Z,0
2017-10-05T05:27:08.534Z,0
2017-10-05T05:27:49.103Z,0
2017-10-05T05:28:29.583Z,0
2017-10-05T05:29:10.101Z,0
2017-10-05T05:29:50.632Z,0
2017-10-05T05:30:31.210Z,0
2017-10-05T05:31:11.699Z,0
2017-10-05T05:31:52.285Z,0
2017-10-05T05:32:32.866Z,0
2017-10-05T05:33:13.437Z,0
2017-10-05T05:33:54.043Z,0
2017-10-05T05:34:34.581Z,5
2017-10-05T05:35:15.145Z,5
2017-10-05T05:37:43.724Z,5
2017-10-05T05:38:24.272Z,5
2017-10-05T05:39:04.759Z,5
2017-10-05T05:39:45.412Z,5
2017-10-05T05:40:26.021Z,5
2017-10-05T05:41:06.447Z,5
2017-10-05T05:41:47.006Z,5
2017-10-05T05:42:27.553Z,5
2017-10-05T05:43:08.096Z,5
2017-10-05T05:43:48.584Z,5
2017-10-05T05:44:29.139Z,10
2017-10-05T05:45:09.682Z,10
2017-10-05T05:45:50.197Z,10
2017-10-05T05:46:30.809Z,10
2017-10-05T05:47:11.301Z,10
2017-10-05T05:47:51.861Z,10
2017-10-05T05:48:32.566Z,10
2017-10-05T05:49:13.044Z,10
2017-10-05T05:49:53.571Z,10
2017-10-05T05:50:34.147Z,10
2017-10-05T05:51:14.695Z,10
2017-10-05T05:51:55.241Z,10
2017-10-05T05:52:35.767Z,15
2017-10-05T05:53:16.324Z,10
2017-10-05T05:53:56.907Z,15
2017-10-05T05:54:37.471Z,15
2017-10-05T05:55:18.094Z,15
2017-10-05T05:55:58.707Z,15
2017-10-05T05:56:39.272Z,15
2017-10-05T05:57:19.778Z,15
2017-10-05T05:58:00.353Z,15
2017-10-05T05:58:40.934Z,15
2017-10-05T05:59:21.792Z,15
2017-10-05T06:00:02.621Z,15
2017-10-05T06:00:43.114Z,20
2017-10-05T06:01:23.617Z,15
2017-10-05T06:02:04.278Z,20
2017-10-05T06:02:44.871Z,20
2017-10-05T06:03:25.329Z,20
2017-10-05T06:04:05.927Z,20
2017-10-05T06:04:46.445Z,20
2017-10-05T06:05:27.014Z,20
2017-10-05T06:06:07.517Z,20
2017-10-05T06:06:48.033Z,20
2017-10-05T06:07:29.208Z,20
2017-10-05T06:08:09.747Z,20
2017-10-05T06:08:50.613Z,20
2017-10-05T06:09:31.183Z,20
2017-10-05T06:10:11.747Z,20
2017-10-05T06:10:53.576Z,20
2017-10-05T06:11:33.816Z,25
2017-10-05T06:12:14.294Z,25
2017-10-05T06:12:54.853Z,25
2017-10-05T06:13:35.389Z,25
2017-10-05T06:14:15.923Z,25
2017-10-05T06:14:56.467Z,25
2017-10-05T06:15:37.009Z,25
2017-10-05T06:16:17.569Z,25
2017-10-05T06:16:58.099Z,25
2017-10-05T06:17:38.625Z,25
2017-10-05T06:18:19.285Z,25
2017-10-05T06:18:59.761Z,25
2017-10-05T06:19:40.346Z,25
2017-10-05T06:20:20.878Z,25
2017-10-05T06:21:01.540Z,25
2017-10-05T06:21:42.143Z,30
2017-10-05T06:22:22.677Z,30
2017-10-05T06:23:03.211Z,30
2017-10-05T06:23:43.921Z,30
2017-10-05T06:24:24.498Z,30
2017-10-05T06:25:05.035Z,30
2017-10-05T06:25:45.653Z,30
2017-10-05T06:26:26.180Z,30
2017-10-05T06:27:06.694Z,30
2017-10-05T06:27:47.278Z,30
2017-10-05T06:28:27.817Z,30
2017-10-05T06:29:08.456Z,30
2017-10-05T06:29:49.031Z,30
2017-10-05T06:30:29.533Z,30
2017-10-05T06:31:10.044Z,35
2017-10-05T06:31:50.647Z,40
2017-10-05T06:32:31.173Z,45
2017-10-05T06:33:11.771Z,50
2017-10-05T06:33:52.732Z,50
2017-10-05T06:34:33.372Z,55
2017-10-05T06:35:13.925Z,60
2017-10-05T06:35:54.491Z,60
2017-10-05T06:36:35.226Z,60
2017-10-05T06:37:15.849Z,60
2017-10-05T06:37:56.359Z,60
2017-10-05T06:38:36.976Z,60
2017-10-05T06:39:17.563Z,60
2017-10-05T06:39:58.076Z,60
2017-10-05T06:40:38.606Z,65
2017-10-05T06:41:19.154Z,60
2017-10-05T06:41:59.636Z,65
2017-10-05T06:42:40.222Z,65
2017-10-05T06:43:20.740Z,65
2017-10-05T06:44:01.287Z,65
2017-10-05T06:44:42.050Z,65
2017-10-05T06:45:22.558Z,60
2017-10-05T06:46:03.095Z,60
2017-10-05T06:46:43.589Z,55
2017-10-05T06:47:24.131Z,55
2017-10-05T06:48:04.700Z,55
2017-10-05T06:48:45.215Z,55
2017-10-05T06:49:25.793Z,55
2017-10-05T06:50:06.301Z,55
2017-10-05T06:50:46.906Z,55
2017-10-05T06:51:27.460Z,55
2017-10-05T06:52:08.004Z,55
2017-10-05T06:52:48.513Z,55
2017-10-05T06:53:29.303Z,55
2017-10-05T06:54:09.913Z,50
2017-10-05T06:54:50.505Z,55
2017-10-05T06:55:31.014Z,55
2017-10-05T06:56:11.519Z,55
2017-10-05T06:56:52.050Z,55
2017-10-05T06:57:32.624Z,55
2017-10-05T06:58:13.259Z,55
2017-10-05T06:58:53.746Z,55
2017-10-05T06:59:34.316Z,55
2017-10-05T07:00:14.824Z,55
2017-10-05T07:00:55.354Z,55
2017-10-05T07:01:35.835Z,55
2017-10-05T07:02:16.385Z,50
2017-10-05T07:02:57.243Z,50
2017-10-05T07:03:37.694Z,50
2017-10-05T07:04:18.335Z,50
2017-10-05T07:04:59.018Z,50
2017-10-05T07:05:39.471Z,50
2017-10-05T07:06:20.158Z,50
2017-10-05T07:07:00.709Z,50
2017-10-05T07:07:41.232Z,50
2017-10-05T07:08:21.771Z,50
2017-10-05T07:09:02.378Z,50
2017-10-05T07:09:42.796Z,55
2017-10-05T07:10:23.318Z,55
2017-10-05T07:11:03.937Z,55
2017-10-05T07:11:44.395Z,55
2017-10-05T07:12:24.968Z,55
2017-10-05T07:13:05.469Z,55
2017-10-05T07:13:46.029Z,55
2017-10-05T07:14:26.535Z,55
2017-10-05T07:15:07.061Z,55
2017-10-05T07:15:47.601Z,55
2017-10-05T07:16:28.145Z,55
2017-10-05T07:17:08.713Z,55
2017-10-05T07:17:49.282Z,55
2017-10-05T07:18:29.881Z,55
2017-10-05T07:19:10.436Z,55
2017-10-05T07:19:50.945Z,55
2017-10-05T07:20:31.507Z,55
2017-10-05T07:21:12.069Z,55
2017-10-05T07:21:52.629Z,55
2017-10-05T07:22:33.160Z,55
2017-10-05T07:23:13.751Z,55
2017-10-05T07:23:54.355Z,55
2017-10-05T07:24:34.840Z,55
2017-10-05T07:25:15.386Z,55
2017-10-05T07:25:55.917Z,55
2017-10-05T07:26:36.498Z,55
2017-10-05T07:27:17.200Z,55
2017-10-05T07:27:57.811Z,55
2017-10-05T07:28:38.374Z,55
2017-10-05T07:29:19.055Z,55
2017-10-05T07:29:59.596Z,55
2017-10-05T07:30:40.151Z,55
2017-10-05T07:31:20.726Z,55
2017-10-05T07:32:01.250Z,55
2017-10-05T07:32:41.774Z,55
2017-10-05T07:33:22.305Z,60
2017-10-05T07:34:02.882Z,55
2017-10-05T07:34:43.382Z,55
2017-10-05T07:35:24.002Z,60
2017-10-05T07:36:04.501Z,60
2017-10-05T07:36:45.036Z,55
2017-10-05T07:37:25.588Z,55
2017-10-05T07:38:06.635Z,55
2017-10-05T07:38:48.283Z,60
2017-10-05T07:39:29.155Z,55
2017-10-05T07:40:09.706Z,55
2017-10-05T07:40:50.322Z,60
2017-10-05T07:41:30.837Z,55
2017-10-05T07:42:11.379Z,60
2017-10-05T07:42:51.931Z,60
2017-10-05T07:43:32.511Z,60
2017-10-05T07:44:13.044Z,60
2017-10-05T07:44:53.569Z,60
2017-10-05T07:45:34.131Z,60
2017-10-05T07:46:14.670Z,60
2017-10-05T07:46:55.231Z,60
2017-10-05T07:47:35.851Z,60
2017-10-05T07:48:16.438Z,60
2017-10-05T07:48:56.994Z,60
2017-10-05T07:49:37.549Z,55
2017-10-05T07:50:18.018Z,60
2017-10-05T07:50:58.593Z,55
2017-10-05T07:51:39.292Z,60
2017-10-05T07:52:19.857Z,60
2017-10-05T07:53:00.394Z,55
2017-10-05T07:53:40.929Z,60
2017-10-05T07:54:21.498Z,60
2017-10-05T07:55:02.056Z,60
2017-10-05T07:55:42.543Z,60
2017-10-05T07:56:23.127Z,60
2017-10-05T07:57:03.610Z,60
2017-10-05T07:57:44.174Z,60
2017-10-05T07:58:24.950Z,55
2017-10-05T07:59:05.486Z,55
2017-10-05T07:59:46.030Z,60
2017-10-05T08:00:26.592Z,55
2017-10-05T08:01:07.124Z,55
2017-10-05T08:01:47.837Z,55
2017-10-05T08:02:28.425Z,55
2017-10-05T08:03:09.058Z,55
2017-10-05T08:03:49.548Z,55
2017-10-05T08:04:30.191Z,55
2017-10-05T08:05:10.622Z,55
2017-10-05T08:05:51.234Z,55
2017-10-05T08:06:31.880Z,55
2017-10-05T08:07:12.424Z,55
2017-10-05T08:07:52.923Z,55
2017-10-05T08:08:33.487Z,55
2017-10-05T08:09:14.032Z,55
2017-10-05T08:09:54.557Z,55
2017-10-05T08:10:35.082Z,50
2017-10-05T08:11:15.704Z,55
2017-10-05T08:11:56.256Z,55
2017-10-05T08:12:36.793Z,55
2017-10-05T08:13:17.336Z,50
2017-10-05T08:13:58.080Z,55
2017-10-05T08:14:38.666Z,50
2017-10-05T08:15:19.126Z,55
2017-10-05T08:15:59.723Z,55
2017-10-05T08:16:40.338Z,50
2017-10-05T08:17:20.885Z,55
2017-10-05T08:18:01.392Z,55
2017-10-05T08:18:41.951Z,55
2017-10-05T08:19:22.483Z,55
2017-10-05T08:20:03.102Z,55
2017-10-05T08:20:43.653Z,55
2017-10-05T08:21:24.209Z,55
2017-10-05T08:22:04.764Z,50
2017-10-05T08:22:45.763Z,55
2017-10-05T08:23:26.365Z,55
2017-10-05T08:24:07.021Z,55
2017-10-05T08:24:47.637Z,55
2017-10-05T08:25:28.170Z,55
2017-10-05T08:26:08.713Z,50
2017-10-05T08:26:49.253Z,55
2017-10-05T08:27:29.815Z,55
2017-10-05T08:28:10.368Z,55
2017-10-05T08:28:51.121Z,55
2017-10-05T08:29:31.568Z,60
2017-10-05T08:30:12.042Z,55
2017-10-05T08:30:52.568Z,55
2017-10-05T08:31:33.222Z,55
2017-10-05T08:32:13.714Z,55
2017-10-05T08:32:54.291Z,55
2017-10-05T08:33:34.962Z,55
2017-10-05T08:34:15.837Z,55
2017-10-05T08:34:56.351Z,55
2017-10-05T08:35:37.071Z,55
2017-10-05T08:36:17.535Z,55
2017-10-05T08:36:58.129Z,55
2017-10-05T08:37:38.642Z,55
2017-10-05T08:38:19.535Z,55
2017-10-05T08:39:00.296Z,55
2017-10-05T08:39:40.509Z,55
2017-10-05T08:40:21.019Z,55
2017-10-05T08:41:01.582Z,55
2017-10-05T08:41:42.036Z,55
2017-10-05T08:42:22.581Z,55
2017-10-05T08:43:03.103Z,55
2017-10-05T08:43:43.712Z,55
2017-10-05T08:44:24.293Z,55
2017-10-05T08:45:04.804Z,55
2017-10-05T08:45:45.386Z,55
2017-10-05T08:46:25.841Z,55
2017-10-05T08:47:06.359Z,55
2017-10-05T08:47:46.898Z,55
2017-10-05T08:48:27.472Z,55
2017-10-05T08:49:08.044Z,55
2017-10-05T08:49:48.563Z,50
2017-10-05T08:50:29.061Z,50
2017-10-05T08:51:09.748Z,50
2017-10-05T08:51:50.288Z,45
2017-10-05T08:52:30.798Z,55
2017-10-05T08:53:11.351Z,55
2017-10-05T08:53:52.162Z,60
2017-10-05T08:54:32.823Z,55
2017-10-05T08:55:13.858Z,55
2017-10-05T08:55:54.373Z,55
2017-10-05T08:56:34.846Z,55
2017-10-05T08:57:15.472Z,55
2017-10-05T08:57:55.980Z,55
2017-10-05T08:58:36.520Z,55
2017-10-05T08:59:17.060Z,55
2017-10-05T08:59:57.591Z,55
2017-10-05T09:00:38.123Z,55
2017-10-05T09:01:18.700Z,55
2017-10-05T09:01:59.192Z,55
2017-10-05T09:02:39.734Z,55
2017-10-05T09:03:20.251Z,55
2017-10-05T09:04:00.854Z,55
2017-10-05T09:04:41.326Z,55
2017-10-05T09:05:21.888Z,55
2017-10-05T09:06:02.465Z,55
2017-10-05T09:06:42.992Z,55
2017-10-05T09:07:23.563Z,55
2017-10-05T09:08:04.126Z,55
2017-10-05T09:08:44.762Z,55
2017-10-05T09:09:25.271Z,55
2017-10-05T09:10:06.423Z,55
2017-10-05T09:10:46.940Z,55
2017-10-05T09:11:27.542Z,55
2017-10-05T09:12:08.208Z,55
2017-10-05T09:12:48.800Z,55
2017-10-05T09:13:29.389Z,60
2017-10-05T09:14:09.880Z,60
2017-10-05T09:14:50.396Z,60
2017-10-05T09:15:31.429Z,55
2017-10-05T09:16:11.960Z,55
2017-10-05T09:16:52.502Z,55
2017-10-05T09:17:33.030Z,55
2017-10-05T09:18:13.566Z,55
2017-10-05T09:18:54.162Z,55
2017-10-05T09:19:34.726Z,55
2017-10-05T09:20:15.247Z,55
2017-10-05T09:20:55.725Z,55
2017-10-05T09:21:36.372Z,55
2017-10-05T09:22:16.890Z,55
2017-10-05T09:22:57.453Z,55
2017-10-05T09:23:38.023Z,55
2017-10-05T09:24:19.033Z,55
2017-10-05T09:24:59.682Z,55
2017-10-05T09:25:40.253Z,60
2017-10-05T09:26:20.737Z,60
2017-10-05T09:27:01.352Z,55
2017-10-05T09:27:41.881Z,60
2017-10-05T09:28:22.432Z,60
2017-10-05T09:29:03.023Z,60
2017-10-05T09:29:43.522Z,60
2017-10-05T09:30:24.058Z,60
2017-10-05T09:31:04.568Z,60
2017-10-05T09:31:45.133Z,60
2017-10-05T09:32:25.677Z,60
2017-10-05T09:33:06.282Z,60
2017-10-05T09:33:46.870Z,60
2017-10-05T09:34:27.338Z,60
2017-10-05T09:35:07.897Z,60
2017-10-05T09:35:48.549Z,60
2017-10-05T09:36:29.105Z,60
2017-10-05T09:37:09.613Z,65
2017-10-05T09:37:50.184Z,60
2017-10-05T09:38:30.700Z,65
2017-10-05T09:39:11.272Z,65
2017-10-05T09:39:51.816Z,65
2017-10-05T09:40:32.359Z,65
2017-10-05T09:41:12.886Z,65
2017-10-05T09:41:53.394Z,65
2017-10-05T09:42:34.040Z,70
2017-10-05T09:43:14.590Z,65
2017-10-05T09:43:55.131Z,65
2017-10-05T09:44:35.699Z,65
2017-10-05T09:45:16.239Z,65
2017-10-05T09:45:56.746Z,65
2017-10-05T09:46:37.436Z,65
2017-10-05T09:47:18.097Z,70
2017-10-05T09:47:58.582Z,75
2017-10-05T09:48:39.260Z,70
2017-10-05T09:49:19.754Z,65
2017-10-05T09:50:00.892Z,70
2017-10-05T09:50:41.660Z,70
2017-10-05T09:51:22.240Z,70
2017-10-05T09:52:02.794Z,70
2017-10-05T09:52:43.377Z,70
2017-10-05T09:53:23.866Z,70
2017-10-05T09:54:04.523Z,70
2017-10-05T09:54:45.016Z,70
2017-10-05T09:55:25.681Z,70
2017-10-05T09:56:06.209Z,70
2017-10-05T09:56:46.829Z,75
2017-10-05T09:57:27.461Z,75
2017-10-05T09:58:08.019Z,75
2017-10-05T09:58:48.594Z,80